Etusivu
METAR-TAF:

METAR-TAF

Lentoasemat :

Ørsta-Voldan lentoasema

Ørsta-Volda, Norja

Leveyspiiri: 62-11N, Pituuspiiri: 006-04E, korkeus merenpinnasta: 7 m

Tämänhetkinen sää

Tämä raportti tehtiin 56 minuuttia sitten, kello 18.50 UTC
Tuuli 8 kn eri suunnista
Lämpötila 12°C
Kosteus 62%
Ilmanpaine 1007 hPa
Näkyvyys 10 km tai enemmän
Hajanaisia pilviä 3700 ft:n korkeudessa
Hajanaisia pilviä 5500 ft:n korkeudessa

METAR: ENOV 071850Z VRB08KT 9999 SCT037 SCT055 12/05 Q1007 RMK WIND 2175FT 28012KT

Aika: 21:46 (19:46 UTC)


TAF: puuttuu

Säähavainnot ja -ennusteet yli 4000 lentoasemalta (METAR- ja TAF-raportit).

Käytössä olevat sääasemat on merkitty karttaan keltaisilla ja punaisilla pisteillä.

Aseta hiiri pisteen päälle nähdäksesi sääaseman nimen.

Klikkaa sitten nähdäksesi säähavainnot ja -ennusteet.

Kartan vaihtaminen: klikkaa mustalla rastilla varustettuja vihreitä pisteitä, niin voit zoomata sisään; viivalla varustettua vihreää pistettä, niin voit zoomata ulos tai vihreitä nuolia, niin pääset viereisille kartoille.


METAR-TAF: